LFLY/LYN METAR and TAF weather

Enter ICAO airport designator
Station Type Date Time Source
LFLY METAR 2020/03/28 09:00 UTC NOAA

LFLY 280900Z AUTO VRB01KT CAVOK 10/03 Q1018


Station Type Date Time Source
LFLY Decoded METAR 2020/03/28 09:00 UTC NOAA

Lyon / Bron, France (LFLY) 45-43N 004-57E 201M
Mar 28, 2020 - 05:00 AM EDT / 2020.03.28 0900 UTC
Wind: Variable at 1 MPH (1 KT):0
Visibility: greater than 7 mile(s):0
Temperature: 50 F (10 C)
Dew Point: 37 F (3 C)
Relative Humidity: 61%
Pressure (altimeter): 30.06 in. Hg (1018 hPa)
ob: LFLY 280900Z AUTO VRB01KT CAVOK 10/03 Q1018
cycle: 9

Station Type Date Time Source
LFLY TAF 2020/03/23 18:38 UTC NOAA

TAF LFLY 231830Z 2318/2418 CNL

Example: see airport list